sensor_id;sensor_type;location;lat;lon;timestamp;P1;durP1;ratioP1;P2;durP2;ratioP2
51467;SDS011;37545;45.302;-122.946;2023-08-08T00:00:13;1.02;;;0.90;;
51467;SDS011;37545;45.302;-122.946;2023-08-08T00:02:42;3.13;;;1.30;;
51467;SDS011;37545;45.302;-122.946;2023-08-08T00:05:10;1.58;;;0.90;;
51467;SDS011;37545;45.302;-122.946;2023-08-08T00:07:41;3.47;;;1.00;;
51467;SDS011;37545;45.302;-122.946;2023-08-08T00:10:09;1.27;;;0.82;;
51467;SDS011;37545;45.302;-122.946;2023-08-08T00:12:38;1.50;;;0.98;;
51467;SDS011;37545;45.302;-122.946;2023-08-08T00:15:07;2.58;;;0.93;;
51467;SDS011;37545;45.302;-122.946;2023-08-08T00:17:36;2.17;;;0.70;;
51467;SDS011;37545;45.302;-122.946;2023-08-08T00:20:05;0.95;;;0.77;;
51467;SDS011;37545;45.302;-122.946;2023-08-08T00:22:34;1.98;;;0.90;;
51467;SDS011;37545;45.302;-122.946;2023-08-08T00:25:05;1.42;;;0.95;;
51467;SDS011;37545;45.302;-122.946;2023-08-08T00:27:36;1.63;;;0.85;;
51467;SDS011;37545;45.302;-122.946;2023-08-08T00:30:08;1.52;;;0.80;;
51467;SDS011;37545;45.302;-122.946;2023-08-08T00:32:37;1.20;;;0.82;;
51467;SDS011;37545;45.302;-122.946;2023-08-08T00:35:06;0.98;;;0.70;;
51467;SDS011;37545;45.302;-122.946;2023-08-08T00:37:37;4.57;;;0.90;;
51467;SDS011;37545;45.302;-122.946;2023-08-08T00:40:08;3.20;;;1.03;;
51467;SDS011;37545;45.302;-122.946;2023-08-08T00:42:37;2.10;;;1.02;;
51467;SDS011;37545;45.302;-122.946;2023-08-08T00:45:06;3.38;;;1.10;;
51467;SDS011;37545;45.302;-122.946;2023-08-08T00:47:35;3.42;;;0.90;;
51467;SDS011;37545;45.302;-122.946;2023-08-08T00:50:05;1.52;;;0.63;;
51467;SDS011;37545;45.302;-122.946;2023-08-08T00:52:34;1.40;;;0.90;;
51467;SDS011;37545;45.302;-122.946;2023-08-08T00:55:05;2.83;;;1.17;;
51467;SDS011;37545;45.302;-122.946;2023-08-08T00:57:39;5.68;;;1.00;;
51467;SDS011;37545;45.302;-122.946;2023-08-08T01:00:09;1.85;;;1.00;;
51467;SDS011;37545;45.302;-122.946;2023-08-08T01:02:38;1.95;;;0.93;;
51467;SDS011;37545;45.302;-122.946;2023-08-08T01:05:07;1.00;;;0.65;;
51467;SDS011;37545;45.302;-122.946;2023-08-08T01:07:38;1.38;;;0.90;;
51467;SDS011;37545;45.302;-122.946;2023-08-08T01:10:13;1.70;;;0.98;;
51467;SDS011;37545;45.302;-122.946;2023-08-08T01:12:45;2.42;;;0.77;;
51467;SDS011;37545;45.302;-122.946;2023-08-08T01:15:16;2.20;;;0.80;;
51467;SDS011;37545;45.302;-122.946;2023-08-08T01:17:46;2.78;;;0.90;;
51467;SDS011;37545;45.302;-122.946;2023-08-08T01:20:16;2.05;;;1.00;;
51467;SDS011;37545;45.302;-122.946;2023-08-08T01:22:50;2.75;;;0.90;;
51467;SDS011;37545;45.302;-122.946;2023-08-08T01:25:40;1.63;;;0.95;;
51467;SDS011;37545;45.302;-122.946;2023-08-08T01:28:09;1.80;;;0.93;;
51467;SDS011;37545;45.302;-122.946;2023-08-08T01:30:40;1.60;;;0.75;;
51467;SDS011;37545;45.302;-122.946;2023-08-08T01:33:16;1.15;;;0.70;;
51467;SDS011;37545;45.302;-122.946;2023-08-08T01:35:45;1.35;;;0.93;;
51467;SDS011;37545;45.302;-122.946;2023-08-08T01:38:19;3.28;;;1.10;;
51467;SDS011;37545;45.302;-122.946;2023-08-08T01:40:52;3.13;;;0.88;;
51467;SDS011;37545;45.302;-122.946;2023-08-08T01:43:24;1.27;;;0.73;;
51467;SDS011;37545;45.302;-122.946;2023-08-08T01:45:54;2.35;;;0.77;;
51467;SDS011;37545;45.302;-122.946;2023-08-08T01:48:22;4.03;;;0.70;;
51467;SDS011;37545;45.302;-122.946;2023-08-08T01:50:54;1.60;;;0.68;;
51467;SDS011;37545;45.302;-122.946;2023-08-08T01:53:22;1.00;;;0.55;;
51467;SDS011;37545;45.302;-122.946;2023-08-08T01:55:53;2.55;;;0.95;;
51467;SDS011;37545;45.302;-122.946;2023-08-08T01:58:22;2.92;;;1.00;;
51467;SDS011;37545;45.302;-122.946;2023-08-08T02:00:50;2.85;;;0.70;;
51467;SDS011;37545;45.302;-122.946;2023-08-08T02:03:19;1.10;;;0.57;;
51467;SDS011;37545;45.302;-122.946;2023-08-08T02:05:48;1.20;;;0.63;;
51467;SDS011;37545;45.302;-122.946;2023-08-08T02:08:16;1.40;;;0.70;;
51467;SDS011;37545;45.302;-122.946;2023-08-08T02:10:45;1.17;;;0.60;;
51467;SDS011;37545;45.302;-122.946;2023-08-08T02:13:24;2.15;;;0.70;;
51467;SDS011;37545;45.302;-122.946;2023-08-08T02:15:52;1.08;;;0.65;;
51467;SDS011;37545;45.302;-122.946;2023-08-08T02:18:21;1.77;;;0.77;;
51467;SDS011;37545;45.302;-122.946;2023-08-08T02:20:49;0.80;;;0.50;;
51467;SDS011;37545;45.302;-122.946;2023-08-08T02:23:21;0.98;;;0.70;;
51467;SDS011;37545;45.302;-122.946;2023-08-08T02:25:50;0.95;;;0.60;;
51467;SDS011;37545;45.302;-122.946;2023-08-08T02:28:19;0.98;;;0.43;;
51467;SDS011;37545;45.302;-122.946;2023-08-08T02:30:49;1.02;;;0.60;;
51467;SDS011;37545;45.302;-122.946;2023-08-08T02:33:18;2.20;;;0.60;;
51467;SDS011;37545;45.302;-122.946;2023-08-08T02:35:50;0.57;;;0.40;;
51467;SDS011;37545;45.302;-122.946;2023-08-08T02:38:18;2.53;;;0.70;;
51467;SDS011;37545;45.302;-122.946;2023-08-08T02:40:47;1.20;;;0.82;;
51467;SDS011;37545;45.302;-122.946;2023-08-08T02:43:16;2.45;;;0.60;;
51467;SDS011;37545;45.302;-122.946;2023-08-08T02:45:44;0.95;;;0.73;;
51467;SDS011;37545;45.302;-122.946;2023-08-08T02:48:15;0.70;;;0.60;;
51467;SDS011;37545;45.302;-122.946;2023-08-08T02:50:43;1.23;;;0.70;;
51467;SDS011;37545;45.302;-122.946;2023-08-08T02:53:12;0.65;;;0.50;;
51467;SDS011;37545;45.302;-122.946;2023-08-08T02:55:41;1.83;;;0.73;;
51467;SDS011;37545;45.302;-122.946;2023-08-08T02:58:12;2.13;;;0.50;;
51467;SDS011;37545;45.302;-122.946;2023-08-08T03:00:41;1.27;;;0.70;;
51467;SDS011;37545;45.302;-122.946;2023-08-08T03:03:09;2.85;;;1.15;;
51467;SDS011;37545;45.302;-122.946;2023-08-08T03:05:39;0.85;;;0.63;;
51467;SDS011;37545;45.302;-122.946;2023-08-08T03:08:10;1.73;;;0.60;;
51467;SDS011;37545;45.302;-122.946;2023-08-08T03:10:39;0.90;;;0.60;;
51467;SDS011;37545;45.302;-122.946;2023-08-08T03:13:08;1.48;;;0.50;;
51467;SDS011;37545;45.302;-122.946;2023-08-08T03:15:37;1.08;;;0.60;;
51467;SDS011;37545;45.302;-122.946;2023-08-08T03:18:05;0.82;;;0.63;;
51467;SDS011;37545;45.302;-122.946;2023-08-08T03:20:34;0.88;;;0.68;;
51467;SDS011;37545;45.302;-122.946;2023-08-08T03:23:04;0.60;;;0.50;;
51467;SDS011;37545;45.302;-122.946;2023-08-08T03:25:33;1.58;;;0.85;;
51467;SDS011;37545;45.302;-122.946;2023-08-08T03:28:01;2.25;;;0.63;;
51467;SDS011;37545;45.302;-122.946;2023-08-08T03:30:32;1.23;;;0.52;;
51467;SDS011;37545;45.302;-122.946;2023-08-08T03:33:03;0.95;;;0.50;;
51467;SDS011;37545;45.302;-122.946;2023-08-08T03:35:32;1.00;;;0.55;;
51467;SDS011;37545;45.302;-122.946;2023-08-08T03:38:01;1.35;;;0.77;;
51467;SDS011;37545;45.302;-122.946;2023-08-08T03:40:31;1.67;;;0.60;;
51467;SDS011;37545;45.302;-122.946;2023-08-08T03:43:00;3.00;;;0.60;;
51467;SDS011;37545;45.302;-122.946;2023-08-08T03:45:29;4.03;;;0.60;;
51467;SDS011;37545;45.302;-122.946;2023-08-08T03:47:57;1.00;;;0.60;;
51467;SDS011;37545;45.302;-122.946;2023-08-08T03:50:26;2.65;;;0.90;;
51467;SDS011;37545;45.302;-122.946;2023-08-08T03:52:55;1.05;;;0.70;;
51467;SDS011;37545;45.302;-122.946;2023-08-08T03:55:25;1.92;;;0.60;;
51467;SDS011;37545;45.302;-122.946;2023-08-08T03:57:56;3.60;;;0.63;;
51467;SDS011;37545;45.302;-122.946;2023-08-08T04:00:24;0.80;;;0.40;;
51467;SDS011;37545;45.302;-122.946;2023-08-08T04:02:53;0.68;;;0.50;;
51467;SDS011;37545;45.302;-122.946;2023-08-08T04:05:21;2.78;;;0.52;;
51467;SDS011;37545;45.302;-122.946;2023-08-08T04:07:50;2.00;;;0.40;;
51467;SDS011;37545;45.302;-122.946;2023-08-08T04:10:19;2.15;;;0.50;;
51467;SDS011;37545;45.302;-122.946;2023-08-08T04:12:47;1.35;;;0.60;;
51467;SDS011;37545;45.302;-122.946;2023-08-08T04:15:20;1.67;;;0.38;;
51467;SDS011;37545;45.302;-122.946;2023-08-08T04:17:53;1.15;;;0.50;;
51467;SDS011;37545;45.302;-122.946;2023-08-08T04:20:22;1.63;;;0.60;;
51467;SDS011;37545;45.302;-122.946;2023-08-08T04:22:51;2.63;;;0.50;;
51467;SDS011;37545;45.302;-122.946;2023-08-08T04:25:19;1.30;;;0.52;;
51467;SDS011;37545;45.302;-122.946;2023-08-08T04:27:48;0.55;;;0.40;;
51467;SDS011;37545;45.302;-122.946;2023-08-08T04:30:28;0.35;;;0.30;;
51467;SDS011;37545;45.302;-122.946;2023-08-08T04:32:57;2.22;;;0.50;;
51467;SDS011;37545;45.302;-122.946;2023-08-08T04:35:38;0.60;;;0.50;;
51467;SDS011;37545;45.302;-122.946;2023-08-08T04:38:07;0.47;;;0.38;;
51467;SDS011;37545;45.302;-122.946;2023-08-08T04:40:36;1.38;;;0.60;;
51467;SDS011;37545;45.302;-122.946;2023-08-08T04:43:04;0.70;;;0.40;;
51467;SDS011;37545;45.302;-122.946;2023-08-08T04:45:35;0.40;;;0.40;;
51467;SDS011;37545;45.302;-122.946;2023-08-08T04:48:03;0.60;;;0.50;;
51467;SDS011;37545;45.302;-122.946;2023-08-08T04:50:33;1.67;;;0.40;;
51467;SDS011;37545;45.302;-122.946;2023-08-08T04:53:01;0.98;;;0.35;;
51467;SDS011;37545;45.302;-122.946;2023-08-08T04:55:33;0.70;;;0.52;;
51467;SDS011;37545;45.302;-122.946;2023-08-08T04:58:01;0.57;;;0.50;;
51467;SDS011;37545;45.302;-122.946;2023-08-08T05:00:30;2.80;;;0.47;;
51467;SDS011;37545;45.302;-122.946;2023-08-08T05:03:00;0.40;;;0.40;;
51467;SDS011;37545;45.302;-122.946;2023-08-08T05:05:29;1.05;;;0.40;;
51467;SDS011;37545;45.302;-122.946;2023-08-08T05:07:58;0.82;;;0.50;;
51467;SDS011;37545;45.302;-122.946;2023-08-08T05:10:27;0.60;;;0.40;;
51467;SDS011;37545;45.302;-122.946;2023-08-08T05:12:56;1.48;;;0.38;;
51467;SDS011;37545;45.302;-122.946;2023-08-08T05:15:25;0.55;;;0.40;;
51467;SDS011;37545;45.302;-122.946;2023-08-08T05:17:54;0.50;;;0.40;;
51467;SDS011;37545;45.302;-122.946;2023-08-08T05:20:27;0.45;;;0.40;;
51467;SDS011;37545;45.302;-122.946;2023-08-08T05:22:56;1.15;;;0.52;;
51467;SDS011;37545;45.302;-122.946;2023-08-08T05:25:26;0.70;;;0.50;;
51467;SDS011;37545;45.302;-122.946;2023-08-08T05:27:54;1.17;;;0.55;;
51467;SDS011;37545;45.302;-122.946;2023-08-08T05:30:23;1.42;;;0.40;;
51467;SDS011;37545;45.302;-122.946;2023-08-08T05:32:52;0.52;;;0.40;;
51467;SDS011;37545;45.302;-122.946;2023-08-08T05:35:21;1.27;;;0.47;;
51467;SDS011;37545;45.302;-122.946;2023-08-08T05:37:51;0.50;;;0.50;;
51467;SDS011;37545;45.302;-122.946;2023-08-08T05:40:20;1.38;;;0.52;;
51467;SDS011;37545;45.302;-122.946;2023-08-08T05:42:49;1.08;;;0.70;;
51467;SDS011;37545;45.302;-122.946;2023-08-08T05:45:18;1.30;;;0.50;;
51467;SDS011;37545;45.302;-122.946;2023-08-08T05:47:47;1.00;;;0.50;;
51467;SDS011;37545;45.302;-122.946;2023-08-08T05:50:15;0.93;;;0.50;;
51467;SDS011;37545;45.302;-122.946;2023-08-08T05:52:45;0.52;;;0.40;;
51467;SDS011;37545;45.302;-122.946;2023-08-08T05:55:17;0.80;;;0.50;;
51467;SDS011;37545;45.302;-122.946;2023-08-08T05:57:46;0.70;;;0.43;;
51467;SDS011;37545;45.302;-122.946;2023-08-08T06:00:15;0.73;;;0.50;;
51467;SDS011;37545;45.302;-122.946;2023-08-08T06:02:47;2.65;;;0.60;;
51467;SDS011;37545;45.302;-122.946;2023-08-08T06:05:16;1.73;;;0.60;;
51467;SDS011;37545;45.302;-122.946;2023-08-08T06:07:45;0.50;;;0.45;;
51467;SDS011;37545;45.302;-122.946;2023-08-08T06:10:13;1.00;;;0.50;;
51467;SDS011;37545;45.302;-122.946;2023-08-08T06:12:44;1.58;;;0.60;;
51467;SDS011;37545;45.302;-122.946;2023-08-08T06:15:12;0.98;;;0.70;;
51467;SDS011;37545;45.302;-122.946;2023-08-08T06:17:41;0.68;;;0.45;;
51467;SDS011;37545;45.302;-122.946;2023-08-08T06:20:10;1.55;;;0.55;;
51467;SDS011;37545;45.302;-122.946;2023-08-08T06:22:38;1.33;;;0.50;;
51467;SDS011;37545;45.302;-122.946;2023-08-08T06:25:08;0.40;;;0.40;;
51467;SDS011;37545;45.302;-122.946;2023-08-08T06:27:37;0.65;;;0.40;;
51467;SDS011;37545;45.302;-122.946;2023-08-08T06:30:07;0.50;;;0.40;;
51467;SDS011;37545;45.302;-122.946;2023-08-08T06:32:36;1.75;;;0.68;;
51467;SDS011;37545;45.302;-122.946;2023-08-08T06:35:05;0.80;;;0.43;;
51467;SDS011;37545;45.302;-122.946;2023-08-08T06:37:35;0.57;;;0.40;;
51467;SDS011;37545;45.302;-122.946;2023-08-08T06:40:04;0.85;;;0.60;;
51467;SDS011;37545;45.302;-122.946;2023-08-08T06:42:36;0.57;;;0.50;;
51467;SDS011;37545;45.302;-122.946;2023-08-08T06:45:07;1.77;;;0.60;;
51467;SDS011;37545;45.302;-122.946;2023-08-08T06:47:36;0.70;;;0.50;;
51467;SDS011;37545;45.302;-122.946;2023-08-08T06:50:05;1.02;;;0.55;;
51467;SDS011;37545;45.302;-122.946;2023-08-08T06:52:35;1.90;;;0.68;;
51467;SDS011;37545;45.302;-122.946;2023-08-08T06:55:03;1.13;;;0.60;;
51467;SDS011;37545;45.302;-122.946;2023-08-08T06:57:32;0.80;;;0.52;;
51467;SDS011;37545;45.302;-122.946;2023-08-08T07:00:02;0.95;;;0.43;;
51467;SDS011;37545;45.302;-122.946;2023-08-08T07:02:33;0.65;;;0.45;;
51467;SDS011;37545;45.302;-122.946;2023-08-08T07:05:02;0.60;;;0.43;;
51467;SDS011;37545;45.302;-122.946;2023-08-08T07:07:32;0.35;;;0.35;;
51467;SDS011;37545;45.302;-122.946;2023-08-08T07:10:01;1.02;;;0.40;;
51467;SDS011;37545;45.302;-122.946;2023-08-08T07:12:34;0.88;;;0.55;;
51467;SDS011;37545;45.302;-122.946;2023-08-08T07:15:03;0.70;;;0.50;;
51467;SDS011;37545;45.302;-122.946;2023-08-08T07:17:40;0.50;;;0.50;;
51467;SDS011;37545;45.302;-122.946;2023-08-08T07:20:12;0.98;;;0.50;;
51467;SDS011;37545;45.302;-122.946;2023-08-08T07:22:44;1.00;;;0.43;;
51467;SDS011;37545;45.302;-122.946;2023-08-08T07:25:13;0.93;;;0.55;;
51467;SDS011;37545;45.302;-122.946;2023-08-08T07:27:42;0.80;;;0.50;;
51467;SDS011;37545;45.302;-122.946;2023-08-08T07:30:11;0.88;;;0.60;;
51467;SDS011;37545;45.302;-122.946;2023-08-08T07:32:52;0.55;;;0.47;;
51467;SDS011;37545;45.302;-122.946;2023-08-08T07:35:21;1.15;;;0.70;;
51467;SDS011;37545;45.302;-122.946;2023-08-08T07:37:49;0.75;;;0.57;;
51467;SDS011;37545;45.302;-122.946;2023-08-08T07:40:20;1.05;;;0.40;;
51467;SDS011;37545;45.302;-122.946;2023-08-08T07:42:49;0.38;;;0.35;;
51467;SDS011;37545;45.302;-122.946;2023-08-08T07:45:17;0.50;;;0.40;;
51467;SDS011;37545;45.302;-122.946;2023-08-08T07:47:46;1.63;;;0.50;;
51467;SDS011;37545;45.302;-122.946;2023-08-08T07:50:17;0.50;;;0.35;;
51467;SDS011;37545;45.302;-122.946;2023-08-08T07:52:45;0.80;;;0.55;;
51467;SDS011;37545;45.302;-122.946;2023-08-08T07:55:14;0.77;;;0.50;;
51467;SDS011;37545;45.302;-122.946;2023-08-08T07:57:43;0.50;;;0.50;;
51467;SDS011;37545;45.302;-122.946;2023-08-08T08:00:12;1.00;;;0.40;;
51467;SDS011;37545;45.302;-122.946;2023-08-08T08:02:46;1.58;;;0.43;;
51467;SDS011;37545;45.302;-122.946;2023-08-08T08:05:17;0.43;;;0.43;;
51467;SDS011;37545;45.302;-122.946;2023-08-08T08:07:45;0.60;;;0.43;;
51467;SDS011;37545;45.302;-122.946;2023-08-08T08:10:14;1.00;;;0.60;;
51467;SDS011;37545;45.302;-122.946;2023-08-08T08:12:43;0.73;;;0.55;;
51467;SDS011;37545;45.302;-122.946;2023-08-08T08:15:12;1.40;;;0.77;;
51467;SDS011;37545;45.302;-122.946;2023-08-08T08:17:40;1.58;;;0.60;;
51467;SDS011;37545;45.302;-122.946;2023-08-08T08:20:09;1.15;;;0.60;;
51467;SDS011;37545;45.302;-122.946;2023-08-08T08:22:40;0.63;;;0.40;;
51467;SDS011;37545;45.302;-122.946;2023-08-08T08:25:13;1.23;;;0.70;;
51467;SDS011;37545;45.302;-122.946;2023-08-08T08:27:42;0.60;;;0.50;;
51467;SDS011;37545;45.302;-122.946;2023-08-08T08:30:11;0.70;;;0.55;;
51467;SDS011;37545;45.302;-122.946;2023-08-08T08:32:41;0.55;;;0.45;;
51467;SDS011;37545;45.302;-122.946;2023-08-08T08:35:14;0.52;;;0.40;;
51467;SDS011;37545;45.302;-122.946;2023-08-08T08:37:45;0.70;;;0.40;;
51467;SDS011;37545;45.302;-122.946;2023-08-08T08:40:14;0.75;;;0.50;;
51467;SDS011;37545;45.302;-122.946;2023-08-08T08:42:43;0.73;;;0.50;;
51467;SDS011;37545;45.302;-122.946;2023-08-08T08:45:16;0.85;;;0.60;;
51467;SDS011;37545;45.302;-122.946;2023-08-08T08:47:50;0.35;;;0.22;;
51467;SDS011;37545;45.302;-122.946;2023-08-08T08:50:24;0.45;;;0.30;;
51467;SDS011;37545;45.302;-122.946;2023-08-08T08:52:56;0.90;;;0.40;;
51467;SDS011;37545;45.302;-122.946;2023-08-08T08:55:26;2.27;;;0.50;;
51467;SDS011;37545;45.302;-122.946;2023-08-08T08:57:55;0.60;;;0.52;;
51467;SDS011;37545;45.302;-122.946;2023-08-08T09:00:24;1.30;;;0.50;;
51467;SDS011;37545;45.302;-122.946;2023-08-08T09:02:52;0.75;;;0.30;;
51467;SDS011;37545;45.302;-122.946;2023-08-08T09:05:22;0.63;;;0.45;;
51467;SDS011;37545;45.302;-122.946;2023-08-08T09:07:52;0.43;;;0.30;;
51467;SDS011;37545;45.302;-122.946;2023-08-08T09:10:23;0.60;;;0.45;;
51467;SDS011;37545;45.302;-122.946;2023-08-08T09:12:53;0.68;;;0.40;;
51467;SDS011;37545;45.302;-122.946;2023-08-08T09:15:25;0.83;;;0.60;;
51467;SDS011;37545;45.302;-122.946;2023-08-08T09:17:57;0.52;;;0.45;;
51467;SDS011;37545;45.302;-122.946;2023-08-08T09:20:26;0.60;;;0.57;;
51467;SDS011;37545;45.302;-122.946;2023-08-08T09:22:56;0.70;;;0.50;;
51467;SDS011;37545;45.302;-122.946;2023-08-08T09:25:26;0.60;;;0.57;;
51467;SDS011;37545;45.302;-122.946;2023-08-08T09:27:55;0.20;;;0.20;;
51467;SDS011;37545;45.302;-122.946;2023-08-08T09:30:23;0.82;;;0.32;;
51467;SDS011;37545;45.302;-122.946;2023-08-08T09:32:54;0.40;;;0.40;;
51467;SDS011;37545;45.302;-122.946;2023-08-08T09:37:54;1.55;;;0.50;;
51467;SDS011;37545;45.302;-122.946;2023-08-08T09:40:23;0.40;;;0.38;;
51467;SDS011;37545;45.302;-122.946;2023-08-08T09:42:54;0.40;;;0.40;;
51467;SDS011;37545;45.302;-122.946;2023-08-08T09:45:34;0.80;;;0.40;;
51467;SDS011;37545;45.302;-122.946;2023-08-08T09:48:04;0.98;;;0.43;;
51467;SDS011;37545;45.302;-122.946;2023-08-08T09:50:34;0.82;;;0.50;;
51467;SDS011;37545;45.302;-122.946;2023-08-08T09:53:03;0.70;;;0.47;;
51467;SDS011;37545;45.302;-122.946;2023-08-08T09:55:34;1.13;;;0.40;;
51467;SDS011;37545;45.302;-122.946;2023-08-08T09:58:05;3.58;;;0.63;;
51467;SDS011;37545;45.302;-122.946;2023-08-08T10:00:34;1.17;;;0.70;;
51467;SDS011;37545;45.302;-122.946;2023-08-08T10:03:04;0.40;;;0.40;;
51467;SDS011;37545;45.302;-122.946;2023-08-08T10:05:33;0.65;;;0.35;;
51467;SDS011;37545;45.302;-122.946;2023-08-08T10:08:02;1.17;;;0.57;;
51467;SDS011;37545;45.302;-122.946;2023-08-08T10:10:31;1.75;;;0.40;;
51467;SDS011;37545;45.302;-122.946;2023-08-08T10:13:01;0.40;;;0.30;;
51467;SDS011;37545;45.302;-122.946;2023-08-08T10:15:33;0.43;;;0.40;;
51467;SDS011;37545;45.302;-122.946;2023-08-08T10:18:05;0.50;;;0.50;;
51467;SDS011;37545;45.302;-122.946;2023-08-08T10:20:35;0.30;;;0.30;;
51467;SDS011;37545;45.302;-122.946;2023-08-08T10:23:04;0.73;;;0.50;;
51467;SDS011;37545;45.302;-122.946;2023-08-08T10:25:34;0.65;;;0.50;;
51467;SDS011;37545;45.302;-122.946;2023-08-08T10:28:03;0.77;;;0.60;;
51467;SDS011;37545;45.302;-122.946;2023-08-08T10:30:44;0.30;;;0.30;;
51467;SDS011;37545;45.302;-122.946;2023-08-08T10:33:19;0.30;;;0.30;;
51467;SDS011;37545;45.302;-122.946;2023-08-08T10:35:56;0.35;;;0.30;;
51467;SDS011;37545;45.302;-122.946;2023-08-08T10:38:26;0.68;;;0.50;;
51467;SDS011;37545;45.302;-122.946;2023-08-08T10:41:09;1.95;;;0.50;;
51467;SDS011;37545;45.302;-122.946;2023-08-08T10:43:45;1.17;;;0.40;;
51467;SDS011;37545;45.302;-122.946;2023-08-08T10:46:24;0.75;;;0.50;;
51467;SDS011;37545;45.302;-122.946;2023-08-08T10:48:55;0.77;;;0.50;;
51467;SDS011;37545;45.302;-122.946;2023-08-08T10:51:31;0.55;;;0.50;;
51467;SDS011;37545;45.302;-122.946;2023-08-08T10:54:05;0.82;;;0.40;;
51467;SDS011;37545;45.302;-122.946;2023-08-08T10:56:35;1.73;;;0.40;;
51467;SDS011;37545;45.302;-122.946;2023-08-08T10:59:12;0.50;;;0.43;;
51467;SDS011;37545;45.302;-122.946;2023-08-08T11:01:48;0.57;;;0.40;;
51467;SDS011;37545;45.302;-122.946;2023-08-08T11:04:18;0.52;;;0.47;;
51467;SDS011;37545;45.302;-122.946;2023-08-08T11:06:49;0.50;;;0.40;;
51467;SDS011;37545;45.302;-122.946;2023-08-08T11:09:22;1.00;;;0.40;;
51467;SDS011;37545;45.302;-122.946;2023-08-08T11:11:52;0.63;;;0.57;;
51467;SDS011;37545;45.302;-122.946;2023-08-08T11:14:21;0.52;;;0.50;;
51467;SDS011;37545;45.302;-122.946;2023-08-08T11:16:52;0.50;;;0.40;;
51467;SDS011;37545;45.302;-122.946;2023-08-08T11:19:21;3.90;;;0.70;;
51467;SDS011;37545;45.302;-122.946;2023-08-08T11:21:50;1.48;;;0.50;;
51467;SDS011;37545;45.302;-122.946;2023-08-08T11:24:19;0.60;;;0.47;;
51467;SDS011;37545;45.302;-122.946;2023-08-08T11:26:48;1.23;;;0.73;;
51467;SDS011;37545;45.302;-122.946;2023-08-08T11:29:17;0.25;;;0.25;;
51467;SDS011;37545;45.302;-122.946;2023-08-08T11:31:46;0.60;;;0.50;;
51467;SDS011;37545;45.302;-122.946;2023-08-08T11:34:18;0.47;;;0.40;;
51467;SDS011;37545;45.302;-122.946;2023-08-08T11:36:46;0.60;;;0.50;;
51467;SDS011;37545;45.302;-122.946;2023-08-08T11:39:16;0.50;;;0.50;;
51467;SDS011;37545;45.302;-122.946;2023-08-08T11:41:45;0.52;;;0.50;;
51467;SDS011;37545;45.302;-122.946;2023-08-08T11:44:17;0.70;;;0.38;;
51467;SDS011;37545;45.302;-122.946;2023-08-08T11:46:47;0.70;;;0.52;;
51467;SDS011;37545;45.302;-122.946;2023-08-08T11:49:15;0.60;;;0.45;;
51467;SDS011;37545;45.302;-122.946;2023-08-08T11:51:46;0.30;;;0.30;;
51467;SDS011;37545;45.302;-122.946;2023-08-08T11:54:15;0.68;;;0.52;;
51467;SDS011;37545;45.302;-122.946;2023-08-08T11:56:43;0.20;;;0.20;;
51467;SDS011;37545;45.302;-122.946;2023-08-08T11:59:12;0.30;;;0.30;;
51467;SDS011;37545;45.302;-122.946;2023-08-08T12:01:41;3.83;;;0.60;;
51467;SDS011;37545;45.302;-122.946;2023-08-08T12:04:11;1.23;;;0.50;;
51467;SDS011;37545;45.302;-122.946;2023-08-08T12:06:44;1.67;;;0.40;;
51467;SDS011;37545;45.302;-122.946;2023-08-08T12:09:13;0.40;;;0.38;;
51467;SDS011;37545;45.302;-122.946;2023-08-08T12:11:42;0.80;;;0.50;;
51467;SDS011;37545;45.302;-122.946;2023-08-08T12:14:13;1.42;;;0.60;;
51467;SDS011;37545;45.302;-122.946;2023-08-08T12:16:42;0.70;;;0.50;;
51467;SDS011;37545;45.302;-122.946;2023-08-08T12:19:11;0.22;;;0.22;;
51467;SDS011;37545;45.302;-122.946;2023-08-08T12:21:45;0.57;;;0.50;;
51467;SDS011;37545;45.302;-122.946;2023-08-08T12:24:13;1.65;;;0.75;;
51467;SDS011;37545;45.302;-122.946;2023-08-08T12:26:42;0.30;;;0.30;;
51467;SDS011;37545;45.302;-122.946;2023-08-08T12:29:11;0.45;;;0.40;;
51467;SDS011;37545;45.302;-122.946;2023-08-08T12:31:39;0.85;;;0.52;;
51467;SDS011;37545;45.302;-122.946;2023-08-08T12:34:08;0.50;;;0.38;;
51467;SDS011;37545;45.302;-122.946;2023-08-08T12:36:41;0.40;;;0.32;;
51467;SDS011;37545;45.302;-122.946;2023-08-08T12:41:39;0.75;;;0.55;;
51467;SDS011;37545;45.302;-122.946;2023-08-08T12:44:08;0.43;;;0.43;;
51467;SDS011;37545;45.302;-122.946;2023-08-08T12:46:36;0.60;;;0.60;;
51467;SDS011;37545;45.302;-122.946;2023-08-08T12:49:05;0.57;;;0.43;;
51467;SDS011;37545;45.302;-122.946;2023-08-08T12:51:36;0.40;;;0.30;;
51467;SDS011;37545;45.302;-122.946;2023-08-08T12:54:05;0.68;;;0.47;;
51467;SDS011;37545;45.302;-122.946;2023-08-08T12:56:38;0.60;;;0.45;;
51467;SDS011;37545;45.302;-122.946;2023-08-08T12:59:09;0.68;;;0.40;;
51467;SDS011;37545;45.302;-122.946;2023-08-08T13:01:38;0.43;;;0.43;;
51467;SDS011;37545;45.302;-122.946;2023-08-08T13:04:07;0.82;;;0.60;;
51467;SDS011;37545;45.302;-122.946;2023-08-08T13:06:36;1.05;;;0.70;;
51467;SDS011;37545;45.302;-122.946;2023-08-08T13:09:05;0.50;;;0.40;;
51467;SDS011;37545;45.302;-122.946;2023-08-08T13:11:34;2.92;;;0.60;;
51467;SDS011;37545;45.302;-122.946;2023-08-08T13:14:04;1.10;;;0.80;;
51467;SDS011;37545;45.302;-122.946;2023-08-08T13:16:32;0.95;;;0.55;;
51467;SDS011;37545;45.302;-122.946;2023-08-08T13:19:01;1.55;;;0.80;;
51467;SDS011;37545;45.302;-122.946;2023-08-08T13:21:31;1.10;;;1.00;;
51467;SDS011;37545;45.302;-122.946;2023-08-08T13:24:00;1.00;;;0.80;;
51467;SDS011;37545;45.302;-122.946;2023-08-08T13:26:29;1.02;;;0.77;;
51467;SDS011;37545;45.302;-122.946;2023-08-08T13:28:58;1.70;;;0.85;;
51467;SDS011;37545;45.302;-122.946;2023-08-08T13:31:28;1.00;;;0.73;;
51467;SDS011;37545;45.302;-122.946;2023-08-08T13:34:00;0.82;;;0.60;;
51467;SDS011;37545;45.302;-122.946;2023-08-08T13:36:29;0.45;;;0.35;;
51467;SDS011;37545;45.302;-122.946;2023-08-08T13:38:58;1.17;;;0.73;;
51467;SDS011;37545;45.302;-122.946;2023-08-08T13:41:26;1.33;;;0.80;;
51467;SDS011;37545;45.302;-122.946;2023-08-08T13:43:55;0.85;;;0.60;;
51467;SDS011;37545;45.302;-122.946;2023-08-08T13:46:34;0.60;;;0.52;;
51467;SDS011;37545;45.302;-122.946;2023-08-08T13:49:03;1.02;;;1.02;;
51467;SDS011;37545;45.302;-122.946;2023-08-08T13:51:32;1.00;;;0.77;;
51467;SDS011;37545;45.302;-122.946;2023-08-08T13:54:04;1.17;;;0.80;;
51467;SDS011;37545;45.302;-122.946;2023-08-08T13:56:33;1.45;;;0.60;;
51467;SDS011;37545;45.302;-122.946;2023-08-08T13:59:02;0.75;;;0.40;;
51467;SDS011;37545;45.302;-122.946;2023-08-08T14:01:31;0.70;;;0.40;;
51467;SDS011;37545;45.302;-122.946;2023-08-08T14:04:01;0.65;;;0.57;;
51467;SDS011;37545;45.302;-122.946;2023-08-08T14:06:31;1.98;;;0.70;;
51467;SDS011;37545;45.302;-122.946;2023-08-08T14:09:00;3.30;;;0.65;;
51467;SDS011;37545;45.302;-122.946;2023-08-08T14:11:30;0.65;;;0.60;;
51467;SDS011;37545;45.302;-122.946;2023-08-08T14:13:58;0.82;;;0.50;;
51467;SDS011;37545;45.302;-122.946;2023-08-08T14:16:27;0.55;;;0.55;;
51467;SDS011;37545;45.302;-122.946;2023-08-08T14:18:56;1.88;;;0.60;;
51467;SDS011;37545;45.302;-122.946;2023-08-08T14:21:26;1.30;;;0.63;;
51467;SDS011;37545;45.302;-122.946;2023-08-08T14:23:55;0.40;;;0.40;;
51467;SDS011;37545;45.302;-122.946;2023-08-08T14:26:24;0.70;;;0.50;;
51467;SDS011;37545;45.302;-122.946;2023-08-08T14:28:53;1.55;;;0.70;;